Time;durP1;ratioP1;P1;durP2;ratioP2;P2;SDS_P1;SDS_P2;PMS_P1;PMS_P2;Temp;Humidity;BMP_temperature;BMP_pressure;BME280_temperature;BME280_humidity;BME280_pressure;Samples;Min_cycle;Max_cycle;Signal;HPM_P1;HPM_P2
2021/07/04 00:00:17;;;;;;;7.15;5.50;;;22.50;94.80;22.40;99291.00;;;;342305;28;95253;-93
2021/07/04 00:00:40;;;;;;;7.10;6.10;;;22.50;94.80;22.30;99291.00;;;;342322;28;91847;-92
2021/07/04 00:00:52;;;;;;;7.45;5.75;;;22.50;94.90;22.30;99293.00;;;;343238;28;93839;-94
2021/07/04 00:01:04;;;;;;;6.90;5.75;;;22.40;94.70;22.20;99296.00;;;;342585;28;91989;-95
2021/07/04 00:01:16;;;;;;;7.18;5.90;;;22.40;94.70;22.10;99294.00;;;;343399;28;94067;-93
2021/07/04 00:01:28;;;;;;;9.75;6.22;;;22.40;94.80;22.10;99299.00;;;;343923;28;91979;-95
2021/07/04 00:01:40;;;;;;;10.40;6.50;;;22.40;94.80;22.10;99296.00;;;;341262;28;94314;-94
2021/07/04 00:01:52;;;;;;;7.45;6.25;;;22.40;94.80;22.10;99296.00;;;;341803;28;91706;-95
2021/07/04 00:02:04;;;;;;;7.10;6.38;;;22.30;94.80;22.10;99298.00;;;;341368;28;92896;-95
2021/07/04 00:02:16;;;;;;;7.25;6.55;;;22.30;94.90;22.10;99305.00;;;;341925;28;92108;-91
2021/07/04 00:02:28;;;;;;;6.90;6.18;;;22.30;94.90;22.00;99295.00;;;;341705;28;95085;-94
2021/07/04 00:02:39;;;;;;;6.38;5.65;;;22.30;94.90;22.00;99294.00;;;;339352;28;92216;-95
2021/07/04 00:02:53;;;;;;;6.18;5.32;;;22.30;94.90;22.00;99293.00;;;;343070;28;93489;-94
2021/07/04 00:03:06;;;;;;;6.20;5.15;;;22.30;94.90;22.00;99297.00;;;;343775;28;91990;-93
2021/07/04 00:03:18;;;;;;;6.25;5.40;;;22.30;94.90;22.00;99295.00;;;;343037;28;94600;-94
2021/07/04 00:03:29;;;;;;;6.90;5.75;;;22.30;94.90;22.10;99299.00;;;;342602;28;91202;-94
2021/07/04 00:03:41;;;;;;;6.82;5.68;;;22.30;94.90;22.10;99294.00;;;;344811;28;94443;-94
2021/07/04 00:03:53;;;;;;;7.05;5.68;;;22.30;94.90;22.00;99295.00;;;;342736;28;92313;-90
2021/07/04 00:04:05;;;;;;;6.93;6.00;;;22.20;95.00;22.00;99300.00;;;;342433;28;94419;-94
2021/07/04 00:04:17;;;;;;;7.32;6.22;;;22.30;95.10;22.00;99297.00;;;;344896;28;91833;-90
2021/07/04 00:04:28;;;;;;;6.55;5.82;;;22.20;95.10;22.10;99294.00;;;;343418;28;95493;-91
2021/07/04 00:04:40;;;;;;;7.05;5.72;;;22.20;95.00;22.00;99294.00;;;;341174;28;91096;-94
2021/07/04 00:04:52;;;;;;;7.47;5.53;;;22.20;95.10;22.00;99295.00;;;;341080;28;94188;-95
2021/07/04 00:05:07;;;;;;;7.72;5.60;;;22.20;95.10;22.10;99296.00;;;;339722;28;91847;-90
2021/07/04 00:05:19;;;;;;;7.13;5.30;;;22.20;95.10;22.10;99295.00;;;;342245;28;95473;-91
2021/07/04 00:05:36;;;;;;;6.00;5.40;;;22.20;95.10;22.20;99286.00;;;;340954;28;91971;-88
2021/07/04 00:05:48;;;;;;;8.10;6.20;;;22.20;95.20;22.20;99285.00;;;;339359;28;99742;-93
2021/07/04 00:06:00;;;;;;;8.20;6.10;;;22.20;95.20;22.20;99293.00;;;;341682;28;94015;-93
2021/07/04 00:06:12;;;;;;;7.43;5.82;;;22.20;95.30;22.20;99287.00;;;;345331;28;96324;-93
2021/07/04 00:06:24;;;;;;;7.47;5.60;;;22.30;95.20;22.30;99289.00;;;;344957;28;92981;-93
2021/07/04 00:06:36;;;;;;;7.10;5.68;;;22.30;95.30;22.40;99286.00;;;;344194;28;95157;-91
2021/07/04 00:06:47;;;;;;;6.55;5.47;;;22.30;95.30;22.40;99287.00;;;;346505;28;92275;-92
2021/07/04 00:06:59;;;;;;;7.35;5.72;;;22.30;95.30;22.40;99289.00;;;;345042;28;94039;-92
2021/07/04 00:07:11;;;;;;;8.07;6.03;;;22.30;95.20;22.30;99283.00;;;;343889;28;90911;-92
2021/07/04 00:07:23;;;;;;;8.93;6.13;;;22.30;95.20;22.30;99283.00;;;;341857;28;94918;-93
2021/07/04 00:07:34;;;;;;;8.25;5.75;;;22.30;95.20;22.30;99281.00;;;;343130;28;92402;-93
2021/07/04 00:07:46;;;;;;;8.93;5.90;;;22.30;95.10;22.40;99286.00;;;;343927;28;93396;-90
2021/07/04 00:07:58;;;;;;;7.90;5.47;;;22.30;95.20;22.30;99286.00;;;;342439;28;91942;-94
2021/07/04 00:08:12;;;;;;;7.65;5.78;;;22.30;95.20;22.10;99287.00;;;;343903;28;94534;-94
2021/07/04 00:08:24;;;;;;;7.53;6.25;;;22.30;95.10;22.20;99288.00;;;;343270;28;92961;-93
2021/07/04 00:08:36;;;;;;;9.50;6.57;;;22.30;95.10;22.20;99283.00;;;;342556;28;93945;-92
2021/07/04 00:08:48;;;;;;;10.50;6.57;;;22.30;95.10;22.20;99290.00;;;;344485;28;91071;-92
2021/07/04 00:09:00;;;;;;;10.07;6.60;;;22.20;95.30;22.30;99275.00;;;;343932;28;94241;-93
2021/07/04 00:09:11;;;;;;;9.55;6.32;;;22.30;95.20;22.30;99289.00;;;;343449;28;91078;-92
2021/07/04 00:09:23;;;;;;;9.45;5.95;;;22.30;95.20;22.20;99288.00;;;;345241;28;94669;-92
2021/07/04 00:09:35;;;;;;;8.75;5.85;;;22.30;95.20;22.30;99284.00;;;;345195;28;91231;-92
2021/07/04 00:09:47;;;;;;;7.85;5.80;;;22.30;95.20;22.30;99289.00;;;;342804;28;94256;-91
2021/07/04 00:09:58;;;;;;;7.25;5.60;;;22.30;95.20;22.30;99286.00;;;;342493;28;92349;-92
2021/07/04 00:10:14;;;;;;;8.80;5.97;;;22.30;95.10;22.30;99285.00;;;;342619;28;92545;-93
2021/07/04 00:10:31;;;;;;;9.98;6.40;;;22.30;95.20;22.40;99282.00;;;;342004;28;93085;-92
2021/07/04 00:10:55;;;;;;;7.38;6.47;;;22.30;95.20;22.40;99289.00;;;;343985;28;95671;-94
2021/07/04 00:11:08;;;;;;;8.93;6.35;;;22.30;95.20;22.40;99289.00;;;;342278;28;92042;-91
2021/07/04 00:11:20;;;;;;;8.27;6.60;;;22.30;95.20;22.30;99286.00;;;;342794;28;93503;-93
2021/07/04 00:11:32;;;;;;;7.38;6.32;;;22.30;95.10;22.40;99288.00;;;;340301;28;91057;-92
2021/07/04 00:11:43;;;;;;;9.40;6.70;;;22.30;95.10;22.40;99295.00;;;;341384;28;94206;-91
2021/07/04 00:11:55;;;;;;;9.82;6.55;;;22.30;95.20;22.30;99294.00;;;;340042;28;92060;-93
2021/07/04 00:12:08;;;;;;;8.13;6.20;;;22.30;95.10;22.40;99289.00;;;;342623;28;92841;-93
2021/07/04 00:12:19;;;;;;;7.70;5.90;;;22.30;95.20;22.40;99290.00;;;;341341;28;91926;-93
2021/07/04 00:12:31;;;;;;;7.88;5.78;;;22.40;95.20;22.40;99296.00;;;;342012;28;94043;-94
2021/07/04 00:12:43;;;;;;;7.60;5.82;;;22.30;95.20;22.40;99300.00;;;;342151;28;92108;-94
2021/07/04 00:12:57;;;;;;;7.53;5.60;;;22.40;95.20;22.50;99297.00;;;;342074;28;93941;-91
2021/07/04 00:13:09;;;;;;;8.00;5.53;;;22.40;95.20;22.50;99296.00;;;;342565;28;91212;-94
2021/07/04 00:13:22;;;;;;;7.50;5.53;;;22.40;95.20;22.50;99291.00;;;;343982;28;95138;-93
2021/07/04 00:13:34;;;;;;;7.35;5.63;;;22.40;95.20;22.60;99292.00;;;;342337;28;92287;-94
2021/07/04 00:13:46;;;;;;;7.40;5.88;;;22.40;95.20;22.50;99293.00;;;;341316;28;93591;-93
2021/07/04 00:13:58;;;;;;;7.80;5.82;;;22.40;95.20;22.50;99300.00;;;;343341;28;92607;-92
2021/07/04 00:14:10;;;;;;;7.72;5.82;;;22.40;95.20;22.50;99295.00;;;;342604;28;94646;-94
2021/07/04 00:14:24;;;;;;;7.60;5.88;;;22.40;95.20;22.40;99293.00;;;;344971;28;92110;-94
2021/07/04 00:14:36;;;;;;;8.13;6.32;;;22.40;95.20;22.20;99294.00;;;;341692;28;94412;-93
2021/07/04 00:14:48;;;;;;;7.68;6.43;;;22.40;95.20;22.10;99297.00;;;;345081;28;92051;-94
2021/07/04 00:15:00;;;;;;;8.27;6.35;;;22.30;95.10;22.00;99291.00;;;;341373;28;96147;-94
2021/07/04 00:15:14;;;;;;;9.45;6.65;;;22.30;95.10;22.10;99308.00;;;;345296;28;91290;-94
2021/07/04 00:15:28;;;;;;;8.55;6.38;;;22.30;95.10;22.20;99292.00;;;;345339;28;94991;-93
2021/07/04 00:15:41;;;;;;;6.88;5.72;;;22.30;95.20;22.30;99292.00;;;;344109;28;92430;-94
2021/07/04 00:15:53;;;;;;;6.38;5.43;;;22.30;95.20;22.40;99293.00;;;;341812;28;94474;-95
2021/07/04 00:16:05;;;;;;;6.65;5.47;;;22.30;95.20;22.40;99292.00;;;;342436;28;91444;-95
2021/07/04 00:16:17;;;;;;;7.50;5.57;;;22.30;95.20;22.30;99293.00;;;;343905;28;93249;-92
2021/07/04 00:16:29;;;;;;;7.57;5.90;;;22.30;95.20;22.30;99288.00;;;;343484;28;92168;-92
2021/07/04 00:16:42;;;;;;;7.38;6.07;;;22.30;95.20;22.30;99292.00;;;;343078;28;93360;-94
2021/07/04 00:16:54;;;;;;;7.72;6.22;;;22.30;95.20;22.40;99292.00;;;;343142;28;92182;-95
2021/07/04 00:17:06;;;;;;;7.88;6.22;;;22.40;95.20;22.30;99292.00;;;;341079;28;97894;-92
2021/07/04 00:17:19;;;;;;;7.05;5.57;;;22.30;95.20;22.30;99291.00;;;;341283;28;92047;-94
2021/07/04 00:17:30;;;;;;;7.50;5.97;;;22.30;95.10;22.30;99293.00;;;;342743;28;93157;-94
2021/07/04 00:17:42;;;;;;;7.65;6.32;;;22.30;95.10;22.40;99290.00;;;;343719;28;91881;-94
2021/07/04 00:17:54;;;;;;;7.45;6.43;;;22.30;95.10;22.30;99288.00;;;;342554;28;93182;-94
2021/07/04 00:18:17;;;;;;;7.32;6.40;;;22.30;95.10;22.20;99292.00;;;;342629;28;91733;-94
2021/07/04 00:18:31;;;;;;;7.55;6.57;;;22.30;95.10;22.10;99291.00;;;;344058;28;93336;-92
2021/07/04 00:18:43;;;;;;;7.93;6.22;;;22.30;95.10;22.00;99291.00;;;;342174;28;91288;-95
2021/07/04 00:18:55;;;;;;;8.15;6.43;;;22.30;95.10;22.00;99289.00;;;;343943;28;93272;-94
2021/07/04 00:19:07;;;;;;;8.73;6.97;;;22.20;95.40;22.00;99290.00;;;;342703;28;92861;-92
2021/07/04 00:19:19;;;;;;;7.47;6.68;;;22.20;95.10;21.90;99288.00;;;;345406;28;98228;-94
2021/07/04 00:19:31;;;;;;;7.35;6.55;;;22.20;95.10;21.80;99289.00;;;;343926;28;92671;-95
2021/07/04 00:19:42;;;;;;;7.20;6.43;;;22.20;95.10;21.90;99286.00;;;;342186;28;92877;-94
2021/07/04 00:19:54;;;;;;;8.32;7.40;;;22.20;95.10;21.90;99293.00;;;;341583;28;92647;-94
2021/07/04 00:20:12;;;;;;;8.15;7.35;;;22.20;95.10;21.80;99287.00;;;;344667;28;94553;-92
2021/07/04 00:20:24;;;;;;;8.80;6.43;;;22.10;95.10;21.80;99290.00;;;;343133;28;91056;-94
2021/07/04 00:20:36;;;;;;;10.02;6.97;;;22.20;95.10;21.90;99288.00;;;;340939;28;93805;-93
2021/07/04 00:20:48;;;;;;;9.40;7.03;;;22.10;95.20;21.90;99286.00;;;;341516;28;91059;-94
2021/07/04 00:21:03;;;;;;;8.18;6.88;;;22.10;95.30;21.80;99295.00;;;;340744;28;93482;-91
2021/07/04 00:21:15;;;;;;;9.00;7.22;;;22.10;95.30;21.80;99289.00;;;;340966;28;92948;-94
2021/07/04 00:21:27;;;;;;;9.07;7.47;;;22.10;95.30;21.90;99296.00;;;;341665;28;95325;-93
2021/07/04 00:21:39;;;;;;;8.10;7.20;;;22.10;95.30;21.90;99296.00;;;;343514;28;91960;-94
2021/07/04 00:21:50;;;;;;;7.97;6.78;;;22.10;95.30;21.80;99289.00;;;;344428;28;94523;-95
2021/07/04 00:22:03;;;;;;;7.55;6.32;;;22.10;95.30;21.70;99288.00;;;;344449;28;91485;-95
2021/07/04 00:22:14;;;;;;;7.43;6.55;;;22.10;95.40;21.70;99296.00;;;;344200;28;93962;-96
2021/07/04 00:22:26;;;;;;;9.07;7.05;;;22.10;95.40;21.70;99294.00;;;;344334;28;91143;-91
2021/07/04 00:22:38;;;;;;;10.43;7.38;;;22.10;95.50;21.60;99300.00;;;;343232;28;92976;-96
2021/07/04 00:22:54;;;;;;;10.23;7.13;;;22.10;95.50;21.60;99293.00;;;;342302;28;91176;-95
2021/07/04 00:23:06;;;;;;;9.30;7.35;;;22.10;95.50;21.70;99313.00;;;;341822;28;92555;-94
2021/07/04 00:23:18;;;;;;;9.43;7.40;;;22.00;95.50;21.70;99295.00;;;;340259;28;92837;-94
2021/07/04 00:23:30;;;;;;;10.43;7.47;;;22.00;95.50;21.80;99292.00;;;;343197;28;93431;-94
2021/07/04 00:23:42;;;;;;;10.60;7.40;;;22.00;95.50;21.80;99289.00;;;;342215;28;92034;-94
2021/07/04 00:23:54;;;;;;;10.77;7.50;;;22.00;95.50;21.80;99304.00;;;;343068;28;93777;-93
2021/07/04 00:24:06;;;;;;;9.60;7.50;;;22.00;95.60;21.80;99297.00;;;;342714;28;91985;-93
2021/07/04 00:24:18;;;;;;;10.63;7.72;;;22.00;95.60;21.90;99300.00;;;;341697;28;94128;-94
2021/07/04 00:24:29;;;;;;;10.25;7.55;;;22.00;95.60;21.90;99297.00;;;;343064;28;91753;-94
2021/07/04 00:24:41;;;;;;;11.95;8.27;;;22.00;95.60;21.80;99297.00;;;;343111;28;93687;-92
2021/07/04 00:24:53;;;;;;;11.00;8.07;;;22.00;95.60;21.80;99298.00;;;;341983;28;91213;-94
2021/07/04 00:25:07;;;;;;;10.05;7.78;;;22.00;95.60;21.90;99293.00;;;;342804;28;92900;-94
2021/07/04 00:25:19;;;;;;;10.45;7.82;;;22.00;95.60;21.80;99305.00;;;;342617;28;92973;-96
2021/07/04 00:25:31;;;;;;;10.05;7.53;;;22.00;95.60;21.80;99298.00;;;;343796;28;95605;-93
2021/07/04 00:25:43;;;;;;;12.07;8.48;;;22.00;95.60;21.80;99304.00;;;;342541;28;92122;-94
2021/07/04 00:25:55;;;;;;;11.77;8.77;;;22.00;95.60;21.80;99300.00;;;;341889;28;93415;-94
2021/07/04 00:26:07;;;;;;;12.38;9.15;;;22.00;95.60;21.70;99300.00;;;;342624;28;91047;-94
2021/07/04 00:26:19;;;;;;;10.43;8.77;;;22.00;95.60;21.70;99299.00;;;;343966;28;94264;-95
2021/07/04 00:26:31;;;;;;;9.55;8.40;;;22.00;95.70;21.70;99296.00;;;;344007;28;91040;-96
2021/07/04 00:26:42;;;;;;;9.65;8.52;;;22.00;95.70;21.70;99296.00;;;;340910;28;93048;-96
2021/07/04 00:26:54;;;;;;;11.73;8.98;;;22.00;95.70;21.80;99298.00;;;;342205;28;91258;-95
2021/07/04 00:27:06;;;;;;;10.98;8.57;;;22.00;95.70;21.80;99296.00;;;;342535;28;94271;-94
2021/07/04 00:27:18;;;;;;;11.43;8.35;;;21.90;95.70;21.80;99304.00;;;;342234;28;93003;-95
2021/07/04 00:27:30;;;;;;;10.18;8.32;;;22.00;95.70;21.80;99295.00;;;;341093;28;95506;-93
2021/07/04 00:27:41;;;;;;;11.32;8.52;;;22.00;95.70;21.80;99290.00;;;;340930;28;92274;-94
2021/07/04 00:27:54;;;;;;;11.13;8.25;;;22.00;95.70;21.80;99294.00;;;;341064;28;94269;-95
2021/07/04 00:28:06;;;;;;;11.10;8.43;;;22.00;95.70;21.90;99299.00;;;;339789;28;92040;-91
2021/07/04 00:28:18;;;;;;;11.73;8.30;;;22.00;95.70;21.80;99294.00;;;;343811;28;93144;-94
2021/07/04 00:28:30;;;;;;;12.15;8.55;;;22.00;95.70;21.80;99293.00;;;;342040;28;92046;-95
2021/07/04 00:28:42;;;;;;;12.05;8.45;;;22.00;95.70;21.80;99299.00;;;;343710;28;92927;-94
2021/07/04 00:28:54;;;;;;;10.65;8.57;;;22.00;95.70;21.90;99295.00;;;;342911;28;92072;-96
2021/07/04 00:29:06;;;;;;;8.90;7.95;;;22.00;95.70;21.90;99292.00;;;;343950;28;92860;-94
2021/07/04 00:29:18;;;;;;;10.40;8.60;;;22.00;95.70;21.80;99295.00;;;;346354;28;92796;-95
2021/07/04 00:29:30;;;;;;;10.07;8.50;;;22.00;95.70;21.80;99296.00;;;;343929;28;96275;-94
2021/07/04 00:29:41;;;;;;;9.48;8.02;;;22.00;95.70;21.80;99294.00;;;;341243;28;91210;-94
2021/07/04 00:29:53;;;;;;;9.48;8.20;;;22.00;95.70;21.90;99293.00;;;;341703;28;95306;-94
2021/07/04 00:30:07;;;;;;;11.00;8.45;;;22.00;95.80;22.00;99294.00;;;;343746;28;91021;-96
2021/07/04 00:30:19;;;;;;;10.50;8.32;;;22.00;96.10;22.00;99289.00;;;;345305;28;93809;-96
2021/07/04 00:30:31;;;;;;;9.73;8.25;;;22.00;95.80;22.00;99297.00;;;;342413;28;91030;-95
2021/07/04 00:30:43;;;;;;;10.32;8.32;;;22.00;95.80;22.00;99291.00;;;;343900;28;93643;-95
2021/07/04 00:30:55;;;;;;;11.32;8.35;;;22.00;95.80;22.10;99290.00;;;;345054;28;91835;-96
2021/07/04 00:31:06;;;;;;;10.52;8.27;;;22.00;95.70;22.00;99297.00;;;;342578;28;92985;-93
2021/07/04 00:31:18;;;;;;;9.90;7.95;;;22.00;95.70;21.90;99299.00;;;;341172;28;93045;-94
2021/07/04 00:31:30;;;;;;;10.38;8.07;;;22.00;95.70;21.80;99299.00;;;;342812;28;94737;-95
2021/07/04 00:31:42;;;;;;;10.55;8.40;;;22.00;95.70;21.90;99297.00;;;;342305;28;91442;-94
2021/07/04 00:31:54;;;;;;;10.65;8.68;;;22.00;95.70;22.00;99291.00;;;;342035;28;95915;-94
2021/07/04 00:32:06;;;;;;;12.88;8.70;;;22.00;95.70;22.10;99296.00;;;;344769;28;91290;-93
2021/07/04 00:32:18;;;;;;;13.43;8.73;;;22.00;95.80;22.10;99304.00;;;;343970;28;91793;-94
2021/07/04 00:32:34;;;;;;;12.13;8.70;;;22.00;95.80;21.90;99289.00;;;;342821;28;92031;-94
2021/07/04 00:32:46;;;;;;;11.38;8.65;;;22.00;95.80;21.90;99297.00;;;;343492;28;96314;-93
2021/07/04 00:32:58;;;;;;;11.75;8.90;;;22.00;95.80;22.00;99300.00;;;;343649;28;91594;-94
2021/07/04 00:33:10;;;;;;;10.15;8.80;;;22.00;95.70;22.10;99300.00;;;;343752;28;94091;-95
2021/07/04 00:33:22;;;;;;;9.65;8.52;;;22.00;95.80;22.10;99293.00;;;;339891;28;91921;-95
2021/07/04 00:33:34;;;;;;;9.95;8.70;;;22.00;95.80;22.10;99289.00;;;;341276;28;94019;-96
2021/07/04 00:33:45;;;;;;;10.00;8.52;;;22.00;95.80;22.20;99297.00;;;;341019;28;92403;-93
2021/07/04 00:33:57;;;;;;;9.32;8.32;;;22.10;95.90;22.30;99285.00;;;;343571;28;94516;-93
2021/07/04 00:34:09;;;;;;;9.15;8.20;;;22.10;95.90;22.30;99287.00;;;;341076;28;91049;-92
2021/07/04 00:34:21;;;;;;;10.13;8.30;;;22.10;95.90;22.30;99285.00;;;;340438;28;93088;-95
2021/07/04 00:34:32;;;;;;;10.85;8.48;;;22.10;95.80;22.20;99287.00;;;;340851;28;91168;-95
2021/07/04 00:34:44;;;;;;;10.45;8.00;;;22.10;95.70;22.20;99286.00;;;;342649;28;94044;-95
2021/07/04 00:34:56;;;;;;;9.98;7.88;;;22.10;95.70;22.10;99289.00;;;;342544;28;92018;-93
2021/07/04 00:35:09;;;;;;;10.65;8.32;;;22.10;95.70;22.10;99290.00;;;;343184;28;94400;-94
2021/07/04 00:35:21;;;;;;;11.20;9.02;;;22.10;95.60;22.20;99280.00;;;;342564;28;93289;-95
2021/07/04 00:35:33;;;;;;;10.25;9.02;;;22.10;95.90;22.20;99283.00;;;;341244;28;95318;-95
2021/07/04 00:35:45;;;;;;;10.02;8.65;;;22.10;95.70;22.30;99282.00;;;;344641;28;91225;-95
2021/07/04 00:35:57;;;;;;;10.27;8.35;;;22.10;95.90;22.30;99280.00;;;;342434;28;94247;-94
2021/07/04 00:36:09;;;;;;;10.80;8.60;;;22.10;95.70;22.20;99286.00;;;;341473;28;91386;-95
2021/07/04 00:36:20;;;;;;;10.32;8.50;;;22.20;95.60;22.10;99275.00;;;;339879;28;94003;-94
2021/07/04 00:36:32;;;;;;;10.98;9.02;;;22.10;95.60;22.10;99275.00;;;;339588;28;91126;-94
2021/07/04 00:36:44;;;;;;;10.43;8.68;;;22.10;95.60;22.00;99276.00;;;;342431;28;93039;-95
2021/07/04 00:36:56;;;;;;;9.73;8.45;;;22.10;95.60;22.00;99270.00;;;;343988;28;91149;-94
2021/07/04 00:37:09;;;;;;;9.38;8.20;;;22.10;95.70;22.10;99270.00;;;;343788;28;92946;-94
2021/07/04 00:37:20;;;;;;;10.55;8.60;;;22.10;95.70;22.20;99272.00;;;;339984;28;92629;-94
2021/07/04 00:37:32;;;;;;;10.82;8.73;;;22.10;95.70;22.20;99269.00;;;;340769;28;94195;-95
2021/07/04 00:37:44;;;;;;;12.05;8.40;;;22.10;95.70;22.20;99267.00;;;;341703;28;90874;-93
2021/07/04 00:37:56;;;;;;;11.55;8.90;;;22.10;95.60;22.00;99271.00;;;;342144;28;93148;-96
2021/07/04 00:38:10;;;;;;;12.65;9.10;;;22.10;95.60;22.10;99268.00;;;;346306;28;91301;-96
2021/07/04 00:38:22;;;;;;;13.05;9.02;;;22.10;95.60;22.00;99268.00;;;;344705;28;93053;-95
2021/07/04 00:38:35;;;;;;;11.75;8.63;;;22.10;95.60;22.10;99266.00;;;;345556;28;91181;-95
2021/07/04 00:38:47;;;;;;;9.40;8.10;;;22.10;95.60;22.10;99261.00;;;;342082;28;92879;-95
2021/07/04 00:38:59;;;;;;;9.50;8.27;;;22.10;95.60;21.80;99264.00;;;;343737;28;91893;-95
2021/07/04 00:39:11;;;;;;;9.98;8.23;;;22.10;95.60;21.80;99262.00;;;;343283;28;92553;-95
2021/07/04 00:39:23;;;;;;;10.48;9.13;;;22.10;95.90;21.80;99262.00;;;;341348;28;92027;-95
2021/07/04 00:39:35;;;;;;;11.63;9.20;;;22.10;95.70;21.80;99263.00;;;;344718;28;93064;-95
2021/07/04 00:39:47;;;;;;;11.52;8.95;;;22.00;95.60;21.80;99266.00;;;;341085;28;91783;-95
2021/07/04 00:39:59;;;;;;;10.85;8.50;;;22.10;95.60;22.00;99274.00;;;;340121;28;94093;-94
2021/07/04 00:40:11;;;;;;;9.65;8.40;;;22.10;95.70;22.00;99268.00;;;;340197;28;91470;-95
2021/07/04 00:40:23;;;;;;;9.75;8.70;;;22.10;95.70;22.00;99263.00;;;;342680;28;93491;-94
2021/07/04 00:40:36;;;;;;;11.63;9.43;;;22.00;95.60;22.00;99261.00;;;;342798;28;91194;-95
2021/07/04 00:40:48;;;;;;;12.50;9.68;;;22.00;95.60;21.80;99257.00;;;;341273;28;92091;-96
2021/07/04 00:41:00;;;;;;;11.35;8.80;;;22.00;95.60;21.70;99260.00;;;;344139;28;91233;-92
2021/07/04 00:41:11;;;;;;;12.38;9.00;;;22.00;95.70;21.70;99264.00;;;;342873;28;93097;-95
2021/07/04 00:41:24;;;;;;;13.73;9.18;;;22.00;95.70;21.70;99259.00;;;;342537;28;92915;-95
2021/07/04 00:41:36;;;;;;;12.18;9.57;;;22.00;95.80;21.70;99261.00;;;;342333;28;95153;-90
2021/07/04 00:41:48;;;;;;;11.10;9.27;;;22.00;95.80;21.70;99266.00;;;;344004;28;91210;-94
2021/07/04 00:41:59;;;;;;;10.73;9.30;;;22.00;95.80;21.60;99266.00;;;;343734;28;91777;-96
2021/07/04 00:42:13;;;;;;;11.30;8.95;;;21.90;95.80;21.50;99267.00;;;;343932;28;91291;-93
2021/07/04 00:42:25;;;;;;;12.98;9.25;;;21.90;95.80;21.50;99272.00;;;;343126;28;93132;-94
2021/07/04 00:42:37;;;;;;;13.05;9.15;;;21.90;95.90;21.50;99264.00;;;;342753;28;91144;-90
2021/07/04 00:42:49;;;;;;;11.85;8.85;;;21.90;95.90;21.50;99260.00;;;;345993;28;93058;-94
2021/07/04 00:43:02;;;;;;;12.77;9.13;;;21.90;95.90;21.50;99263.00;;;;343166;28;92033;-94
2021/07/04 00:43:14;;;;;;;12.35;9.73;;;21.80;95.90;21.50;99261.00;;;;343014;28;93678;-94
2021/07/04 00:43:26;;;;;;;11.90;9.68;;;21.80;95.90;21.60;99262.00;;;;343144;28;92074;-93
2021/07/04 00:43:38;;;;;;;11.70;9.48;;;21.80;95.90;21.60;99264.00;;;;343380;28;94473;-94
2021/07/04 00:43:49;;;;;;;11.27;9.15;;;21.90;96.00;21.60;99261.00;;;;342968;28;91120;-94
2021/07/04 00:44:01;;;;;;;10.27;8.68;;;21.90;96.00;21.50;99268.00;;;;340759;28;93265;-96
2021/07/04 00:44:13;;;;;;;10.77;8.68;;;21.90;96.00;21.60;99265.00;;;;342471;28;91242;-94
2021/07/04 00:44:25;;;;;;;10.43;8.07;;;21.80;96.00;21.60;99272.00;;;;342964;28;94155;-94
2021/07/04 00:44:37;;;;;;;10.40;8.50;;;21.80;96.00;21.60;99266.00;;;;342047;28;91306;-94
2021/07/04 00:44:50;;;;;;;9.98;8.75;;;21.80;96.00;21.50;99277.00;;;;341559;28;94617;-95
2021/07/04 00:45:07;;;;;;;10.23;9.05;;;21.80;96.00;21.50;99262.00;;;;343969;28;91986;-92
2021/07/04 00:45:22;;;;;;;10.70;8.95;;;21.80;96.00;21.50;99271.00;;;;342829;28;93072;-94
2021/07/04 00:45:34;;;;;;;10.88;8.68;;;21.80;96.10;21.60;99269.00;;;;343917;28;92892;-95
2021/07/04 00:45:45;;;;;;;11.60;9.23;;;21.80;96.10;21.60;99272.00;;;;341289;28;94840;-94
2021/07/04 00:45:57;;;;;;;11.07;9.27;;;21.80;96.10;21.70;99267.00;;;;343522;28;91960;-94
2021/07/04 00:46:09;;;;;;;9.98;8.50;;;21.80;96.00;21.70;99272.00;;;;343888;28;93005;-94
2021/07/04 00:46:21;;;;;;;10.27;8.43;;;21.80;96.10;21.70;99276.00;;;;343718;28;91021;-95
2021/07/04 00:46:33;;;;;;;10.98;8.90;;;21.80;96.10;21.70;99273.00;;;;344026;28;93413;-95
2021/07/04 00:46:45;;;;;;;11.27;9.00;;;21.80;96.10;21.80;99272.00;;;;342494;28;92001;-95
2021/07/04 00:46:57;;;;;;;11.20;8.75;;;21.80;96.10;21.80;99275.00;;;;343916;28;94164;-92
2021/07/04 00:47:09;;;;;;;10.68;8.77;;;21.80;96.10;21.80;99276.00;;;;342526;28;92035;-95
2021/07/04 00:47:21;;;;;;;10.73;8.65;;;21.80;96.10;21.80;99278.00;;;;342474;28;93340;-93
2021/07/04 00:47:33;;;;;;;11.90;9.15;;;21.90;96.10;21.90;99272.00;;;;342418;28;92315;-91
2021/07/04 00:47:46;;;;;;;12.18;9.10;;;21.90;96.10;22.00;99279.00;;;;343880;28;94048;-95
2021/07/04 00:47:58;;;;;;;10.65;8.55;;;21.90;96.20;21.90;99269.00;;;;345136;28;91251;-94
2021/07/04 00:48:10;;;;;;;9.43;8.43;;;21.80;96.10;22.00;99277.00;;;;342467;28;92733;-94
2021/07/04 00:48:22;;;;;;;9.57;8.57;;;21.90;96.20;22.00;99273.00;;;;344219;28;92115;-95
2021/07/04 00:48:34;;;;;;;10.23;8.90;;;21.90;96.20;22.00;99279.00;;;;342369;28;91529;-93
2021/07/04 00:48:46;;;;;;;11.45;9.60;;;21.90;96.20;21.90;99270.00;;;;341171;28;92013;-90
2021/07/04 00:48:58;;;;;;;11.98;9.88;;;22.00;96.20;21.90;99270.00;;;;342784;28;94456;-93
2021/07/04 00:49:10;;;;;;;11.65;9.77;;;21.90;96.10;21.70;99280.00;;;;342538;28;92084;-95
2021/07/04 00:49:22;;;;;;;11.30;9.10;;;21.90;96.10;21.70;99286.00;;;;341165;28;94335;-96
2021/07/04 00:49:34;;;;;;;10.50;9.00;;;21.90;96.00;21.80;99282.00;;;;342600;28;92144;-95
2021/07/04 00:49:47;;;;;;;11.48;9.23;;;21.90;96.00;21.80;99280.00;;;;341490;28;94159;-95
2021/07/04 00:49:58;;;;;;;11.32;9.35;;;21.90;96.00;21.80;99280.00;;;;342418;28;91092;-93
2021/07/04 00:50:11;;;;;;;12.07;9.25;;;21.90;96.40;21.90;99268.00;;;;343955;28;94203;-92
2021/07/04 00:50:25;;;;;;;11.07;8.95;;;21.90;96.20;22.00;99273.00;;;;341860;28;91066;-94
2021/07/04 00:50:37;;;;;;;10.43;8.63;;;21.90;96.20;21.90;99279.00;;;;340320;28;94294;-93
2021/07/04 00:50:49;;;;;;;10.70;8.98;;;21.90;96.20;21.90;99275.00;;;;340882;28;91832;-92
2021/07/04 00:51:02;;;;;;;11.55;9.65;;;21.90;96.10;21.90;99284.00;;;;342729;28;91860;-95
2021/07/04 00:51:14;;;;;;;13.38;10.10;;;21.90;96.10;21.90;99271.00;;;;339534;28;91921;-94
2021/07/04 00:51:25;;;;;;;12.82;9.65;;;21.90;96.10;21.80;99273.00;;;;342128;28;94830;-91
2021/07/04 00:51:37;;;;;;;11.73;9.00;;;21.90;96.10;21.70;99276.00;;;;340256;28;92126;-92
2021/07/04 00:51:49;;;;;;;9.85;8.80;;;21.90;96.10;21.80;99280.00;;;;343173;28;94073;-94
2021/07/04 00:52:01;;;;;;;10.10;9.00;;;21.90;96.20;21.70;99281.00;;;;341723;28;92182;-95
2021/07/04 00:52:13;;;;;;;10.13;9.00;;;21.90;96.20;21.80;99272.00;;;;341665;28;93461;-94
2021/07/04 00:52:25;;;;;;;10.85;9.05;;;21.90;96.20;21.60;99278.00;;;;341789;28;92104;-92
2021/07/04 00:52:37;;;;;;;11.55;8.73;;;21.90;96.20;21.70;99271.00;;;;343975;28;93385;-93
2021/07/04 00:52:49;;;;;;;12.75;8.98;;;21.80;96.10;21.60;99279.00;;;;344458;28;92267;-93
2021/07/04 00:53:01;;;;;;;11.30;9.10;;;21.90;96.10;21.60;99280.00;;;;344196;28;93374;-95
2021/07/04 00:53:13;;;;;;;12.02;9.52;;;21.80;96.20;21.50;99278.00;;;;343003;28;91807;-95
2021/07/04 00:53:25;;;;;;;12.15;9.10;;;21.80;96.20;21.60;99276.00;;;;343150;28;93236;-95
2021/07/04 00:53:38;;;;;;;12.35;9.20;;;21.80;96.20;21.60;99278.00;;;;343442;28;93208;-94
2021/07/04 00:53:50;;;;;;;12.23;9.15;;;21.80;96.30;21.70;99273.00;;;;343077;28;94268;-93
2021/07/04 00:54:01;;;;;;;15.27;9.13;;;21.80;96.30;21.60;99272.00;;;;344220;28;91163;-94
2021/07/04 00:54:13;;;;;;;15.13;9.25;;;21.80;96.30;21.70;99269.00;;;;343174;28;93277;-93
2021/07/04 00:54:25;;;;;;;15.00;9.15;;;21.80;96.30;21.80;99269.00;;;;342735;28;91417;-93
2021/07/04 00:54:37;;;;;;;12.10;8.70;;;21.80;96.30;21.90;99275.00;;;;342948;28;93255;-94
2021/07/04 00:54:49;;;;;;;11.75;9.07;;;21.80;96.30;21.90;99276.00;;;;344152;28;91859;-94
2021/07/04 00:55:02;;;;;;;11.70;9.35;;;21.80;96.50;21.80;99268.00;;;;341723;28;93788;-93
2021/07/04 00:55:16;;;;;;;11.95;9.65;;;21.80;96.20;21.80;99277.00;;;;345615;28;91127;-95